Time;durP1;ratioP1;P1;durP2;ratioP2;P2;SDS_P1;SDS_P2;PMS_P1;PMS_P2;Temp;Humidity;BMP_temperature;BMP_pressure;BME280_temperature;BME280_humidity;BME280_pressure;Samples;Min_cycle;Max_cycle;Signal;HPM_P1;HPM_P2
2021/01/18 00:00:22;;;;;;;10.52;7.55;;;;;;;-0.15;100.00;96566.75;1028411;28;20085;-78
2021/01/18 00:00:52;;;;;;;10.85;7.03;;;;;;;-0.22;100.00;96555.84;1024210;29;20067;-78
2021/01/18 00:01:26;;;;;;;10.30;7.00;;;;;;;-0.12;100.00;96572.63;1032387;28;20457;-78
2021/01/18 00:01:56;;;;;;;10.70;7.30;;;;;;;-0.07;100.00;96581.03;1040522;28;20112;-78
2021/01/18 00:02:28;;;;;;;8.73;6.55;;;;;;;-0.06;100.00;96577.47;1032319;28;20024;-78
2021/01/18 00:03:01;;;;;;;9.35;6.68;;;;;;;-0.22;100.00;96555.84;1032181;28;20026;-77
2021/01/18 00:03:32;;;;;;;9.02;6.25;;;;;;;-0.17;100.00;96552.94;1032357;28;20088;-78
2021/01/18 00:04:04;;;;;;;10.77;6.88;;;;;;;-0.07;100.00;96572.31;1032366;28;20105;-78
2021/01/18 00:04:35;;;;;;;10.60;7.78;;;;;;;-0.12;100.00;96569.16;1036342;28;20026;-78
2021/01/18 00:05:07;;;;;;;9.75;6.50;;;;;;;-0.14;100.00;96568.41;1032252;28;20026;-77
2021/01/18 00:05:38;;;;;;;9.80;6.72;;;;;;;-0.07;100.00;96572.31;1032354;28;20030;-78
2021/01/18 00:06:14;;;;;;;11.95;7.82;;;;;;;-0.11;100.00;96576.06;1028398;28;20030;-78
2021/01/18 00:06:45;;;;;;;10.00;7.03;;;;;;;-0.14;100.00;96584.94;1036312;28;20394;-78
2021/01/18 00:07:15;;;;;;;9.40;6.57;;;;;;;-0.16;100.00;96562.47;1024262;28;20023;-78
2021/01/18 00:07:48;;;;;;;10.05;7.05;;;;;;;-0.07;100.00;96582.78;1036303;28;20556;-78
2021/01/18 00:08:19;;;;;;;9.57;6.68;;;;;;;-0.07;100.00;96577.53;1028369;28;20026;-78
2021/01/18 00:08:50;;;;;;;10.30;6.78;;;;;;;-0.17;100.00;96568.59;1036287;28;20021;-78
2021/01/18 00:09:21;;;;;;;10.32;6.65;;;;;;;-0.09;100.00;96576.81;1028156;28;20061;-78
2021/01/18 00:09:52;;;;;;;10.35;6.72;;;;;;;-0.08;100.00;96583.72;1028256;28;20073;-78
2021/01/18 00:10:24;;;;;;;11.18;6.53;;;;;;;-0.21;100.00;96560.97;1028266;28;20034;-78
2021/01/18 00:10:55;;;;;;;9.20;6.55;;;;;;;-0.05;100.00;96583.53;1032273;28;20458;-77
2021/01/18 00:11:25;;;;;;;9.45;6.50;;;;;;;-0.06;100.00;96587.91;1028198;28;20109;-77
2021/01/18 00:11:56;;;;;;;9.73;6.35;;;;;;;-0.06;100.00;96585.28;1032340;28;20030;-78
2021/01/18 00:12:27;;;;;;;8.38;6.32;;;;;;;-0.06;100.00;96587.06;1036331;28;20022;-78
2021/01/18 00:12:58;;;;;;;9.63;6.47;;;;;;;-0.19;100.00;96566.13;1024266;28;20054;-78
2021/01/18 00:13:29;;;;;;;9.75;6.50;;;;;;;-0.09;100.00;96582.03;1040423;28;20363;-78
2021/01/18 00:14:00;;;;;;;9.10;6.55;;;;;;;-0.03;100.00;96597.34;1028342;28;20026;-78
2021/01/18 00:14:31;;;;;;;9.55;6.07;;;;;;;-0.15;100.00;96566.75;1032408;28;20029;-78
2021/01/18 00:15:02;;;;;;;10.15;6.68;;;;;;;-0.32;100.00;96539.09;1040352;28;20047;-78
2021/01/18 00:15:33;;;;;;;10.02;6.40;;;;;;;-0.08;100.00;96579.31;1032224;28;20252;-77
2021/01/18 00:16:04;;;;;;;9.68;6.45;;;;;;;0.00;100.00;96597.16;1036323;28;20021;-77
2021/01/18 00:16:35;;;;;;;10.13;6.75;;;;;;;0.01;100.00;96588.38;1032237;28;20018;-78
2021/01/18 00:17:07;;;;;;;9.30;6.72;;;;;;;0.01;100.00;96592.75;1040398;28;20025;-78
2021/01/18 00:17:37;;;;;;;9.13;6.75;;;;;;;0.02;100.00;96591.81;1032127;28;20469;-78
2021/01/18 00:18:08;;;;;;;9.70;6.43;;;;;;;-0.07;100.00;96580.16;1028285;28;20019;-78
2021/01/18 00:18:39;;;;;;;9.15;6.57;;;;;;;0.05;100.00;96591.63;1028241;28;20516;-78
2021/01/18 00:19:10;;;;;;;9.02;6.10;;;;;;;-0.01;100.00;96588.47;1032452;28;20033;-77
2021/01/18 00:19:40;;;;;;;9.95;6.63;;;;;;;-0.10;100.00;96567.31;1032260;28;20501;-78
2021/01/18 00:20:13;;;;;;;9.65;6.53;;;;;;;0.08;100.00;96594.06;1036550;28;20069;-78
2021/01/18 00:20:45;;;;;;;9.65;6.57;;;;;;;0.06;100.00;96588.09;1036377;28;20029;-77
2021/01/18 00:21:16;;;;;;;8.10;5.90;;;;;;;0.05;100.00;96594.22;1036273;28;20394;-78
2021/01/18 00:21:47;;;;;;;10.50;6.88;;;;;;;0.05;100.00;96589.84;1032115;28;20117;-78
2021/01/18 00:22:18;;;;;;;8.68;5.90;;;;;;;-0.03;100.00;96572.06;1028281;28;20045;-78
2021/01/18 00:22:49;;;;;;;10.80;6.80;;;;;;;0.05;100.00;96595.06;1024301;28;20512;-78
2021/01/18 00:23:19;;;;;;;8.98;6.18;;;;;;;-0.05;100.00;96573.09;1028286;28;20033;-77
2021/01/18 00:23:50;;;;;;;9.15;6.15;;;;;;;0.09;100.00;96590.50;1028131;28;20495;-78
2021/01/18 00:24:21;;;;;;;9.18;7.40;;;;;;;0.00;100.00;96581.47;1024344;29;20051;-78
2021/01/18 00:24:52;;;;;;;9.73;6.70;;;;;;;-0.02;100.00;96584.19;1028311;28;20114;-78
2021/01/18 00:25:23;;;;;;;9.30;6.13;;;;;;;0.08;100.00;96594.88;1028155;28;20376;-78
2021/01/18 00:25:55;;;;;;;9.65;6.82;;;;;;;0.10;100.00;96593.00;1032266;28;20101;-77
2021/01/18 00:26:25;;;;;;;8.68;6.38;;;;;;;-0.04;100.00;96574.75;1028351;28;20037;-77
2021/01/18 00:26:56;;;;;;;9.48;7.28;;;;;;;0.08;100.00;96597.50;1020310;29;20090;-77
2021/01/18 00:27:27;;;;;;;8.50;6.18;;;;;;;0.02;100.00;96589.19;1032191;28;20033;-77
2021/01/18 00:27:58;;;;;;;9.35;6.22;;;;;;;-0.01;100.00;96585.00;1032222;28;20662;-77
2021/01/18 00:28:28;;;;;;;12.55;6.80;;;;;;;0.06;100.00;96596.75;1032208;28;20113;-77
2021/01/18 00:28:59;;;;;;;11.18;7.25;;;;;;;-0.02;100.00;96583.31;1028246;28;20023;-77
2021/01/18 00:29:30;;;;;;;9.63;6.80;;;;;;;0.11;100.00;96593.88;1024174;29;20028;-78
2021/01/18 00:30:04;;;;;;;10.43;6.30;;;;;;;0.03;100.00;96589.09;1028120;28;20095;-78
2021/01/18 00:30:35;;;;;;;11.05;6.22;;;;;;;0.07;100.00;96588.00;1016466;29;20084;-77
2021/01/18 00:31:06;;;;;;;10.00;6.65;;;;;;;0.14;100.00;96597.13;1028175;28;20170;-77
2021/01/18 00:31:42;;;;;;;8.90;6.60;;;;;;;0.00;100.00;96571.03;1028243;28;20033;-78
2021/01/18 00:32:12;;;;;;;9.52;6.50;;;;;;;0.02;100.00;96579.63;1032071;28;20109;-78
2021/01/18 00:32:43;;;;;;;9.88;6.53;;;;;;;0.15;100.00;96596.16;1036296;28;20026;-77
2021/01/18 00:33:14;;;;;;;9.98;6.70;;;;;;;0.08;100.00;96586.22;1032304;28;20422;-78
2021/01/18 00:33:47;;;;;;;10.18;6.63;;;;;;;0.06;100.00;96585.47;1032233;28;20084;-77
2021/01/18 00:34:18;;;;;;;8.35;6.20;;;;;;;0.09;100.00;96591.34;1028040;28;20096;-78
2021/01/18 00:34:49;;;;;;;9.38;6.60;;;;;;;0.12;100.00;96600.75;1032209;28;20510;-78
2021/01/18 00:35:20;;;;;;;10.57;6.93;;;;;;;0.08;100.00;96605.31;1028229;28;20034;-78
2021/01/18 00:35:51;;;;;;;8.98;6.53;;;;;;;-0.03;100.00;96571.22;1028169;28;20030;-77
2021/01/18 00:36:23;;;;;;;9.02;6.00;;;;;;;0.03;100.00;96591.72;1032126;28;20022;-77
2021/01/18 00:36:54;;;;;;;9.32;6.55;;;;;;;0.03;100.00;96581.28;1028232;28;20027;-77
2021/01/18 00:37:25;;;;;;;10.00;6.63;;;;;;;0.03;100.00;96593.50;1036278;28;20449;-77
2021/01/18 00:37:56;;;;;;;9.82;5.80;;;;;;;0.10;100.00;96600.84;1032047;28;20053;-77
2021/01/18 00:38:27;;;;;;;9.45;6.40;;;;;;;0.07;100.00;96595.84;1036105;28;20034;-77
2021/01/18 00:38:58;;;;;;;8.93;6.60;;;;;;;0.07;100.00;96597.59;1036262;28;20032;-78
2021/01/18 00:39:29;;;;;;;9.68;7.10;;;;;;;0.09;100.00;96601.78;1036405;28;20026;-78
2021/01/18 00:39:59;;;;;;;10.18;7.00;;;;;;;0.08;100.00;96596.66;1036243;28;20022;-77
2021/01/18 00:40:30;;;;;;;8.98;6.72;;;;;;;-0.17;100.00;96566.84;1028022;28;20054;-78
2021/01/18 00:41:01;;;;;;;10.52;7.10;;;;;;;0.05;100.00;96600.28;1032164;28;20065;-78
2021/01/18 00:41:39;;;;;;;9.48;6.20;;;;;;;-0.24;100.00;96548.13;1028241;28;20026;-78
2021/01/18 00:42:18;;;;;;;10.02;6.15;;;;;;;0.07;100.00;96598.44;1036028;28;20022;-77
2021/01/18 00:42:48;;;;;;;12.55;6.82;;;;;;;0.08;100.00;96594.06;1036230;28;20033;-78
2021/01/18 00:43:19;;;;;;;9.50;6.78;;;;;;;-0.36;100.00;96528.00;1024163;29;20031;-78
2021/01/18 00:43:50;;;;;;;9.02;6.45;;;;;;;0.08;100.00;96594.88;1028245;28;20027;-78
2021/01/18 00:44:21;;;;;;;10.52;6.75;;;;;;;0.08;100.00;96589.66;1028015;28;20031;-78
2021/01/18 00:44:52;;;;;;;9.98;6.60;;;;;;;-0.02;100.00;96576.34;1032138;28;20037;-78
2021/01/18 00:45:23;;;;;;;10.82;6.63;;;;;;;0.05;100.00;96584.63;1032208;28;20022;-78
2021/01/18 00:45:54;;;;;;;13.60;7.18;;;;;;;0.14;100.00;96597.13;1044483;28;20025;-78
2021/01/18 00:46:25;;;;;;;10.20;7.10;;;;;;;0.09;100.00;96593.97;1024058;28;20443;-77
2021/01/18 00:46:56;;;;;;;11.88;6.85;;;;;;;0.00;100.00;96571.03;1032162;28;20022;-77
2021/01/18 00:47:26;;;;;;;10.63;7.53;;;;;;;0.11;100.00;96586.84;1036316;28;20095;-77
2021/01/18 00:47:57;;;;;;;9.27;6.63;;;;;;;0.04;100.00;96574.28;1032120;28;20105;-78
2021/01/18 00:48:28;;;;;;;9.63;6.70;;;;;;;0.10;100.00;96598.22;1031985;28;20030;-78
2021/01/18 00:48:58;;;;;;;10.75;6.80;;;;;;;0.11;100.00;96599.09;1032011;28;20133;-77
2021/01/18 00:49:29;;;;;;;9.65;6.72;;;;;;;0.11;100.00;96594.69;1032205;28;20068;-77
2021/01/18 00:50:00;;;;;;;9.05;6.75;;;;;;;0.13;100.00;96589.38;1032119;28;20117;-78
2021/01/18 00:50:30;;;;;;;10.65;7.05;;;;;;;0.14;100.00;96593.66;1032063;28;20029;-77
2021/01/18 00:51:01;;;;;;;10.85;7.80;;;;;;;0.06;100.00;96564.59;1032134;28;20022;-78
2021/01/18 00:51:39;;;;;;;11.07;7.65;;;;;;;0.14;100.00;96594.50;1028124;28;20018;-77
2021/01/18 00:52:11;;;;;;;10.23;7.10;;;;;;;0.08;100.00;96594.06;1032208;28;20105;-77
2021/01/18 00:52:43;;;;;;;10.38;7.05;;;;;;;-0.04;100.00;96569.53;1028003;28;20498;-78
2021/01/18 00:53:14;;;;;;;10.98;6.90;;;;;;;0.05;100.00;96587.22;1036192;28;20112;-78
2021/01/18 00:53:44;;;;;;;9.70;6.30;;;;;;;0.10;100.00;96592.19;1032176;28;20026;-78
2021/01/18 00:54:15;;;;;;;11.82;6.97;;;;;;;0.01;100.00;96577.09;1032178;28;20022;-78
2021/01/18 00:54:46;;;;;;;10.40;6.85;;;;;;;0.06;100.00;96593.31;1032143;28;20014;-77
2021/01/18 00:55:18;;;;;;;9.95;6.70;;;;;;;0.13;100.00;96586.78;1028143;28;20015;-78
2021/01/18 00:55:49;;;;;;;12.50;7.18;;;;;;;0.13;100.00;96597.22;1028102;28;20019;-78
2021/01/18 00:56:19;;;;;;;10.57;7.22;;;;;;;0.01;100.00;96577.91;1036273;28;20010;-78
2021/01/18 00:56:51;;;;;;;10.20;7.20;;;;;;;0.05;100.00;96586.41;1028116;28;20021;-78
2021/01/18 00:57:21;;;;;;;10.07;6.70;;;;;;;0.08;100.00;96597.50;1027969;28;20072;-78
2021/01/18 00:57:52;;;;;;;11.68;7.57;;;;;;;0.09;100.00;96599.19;1040209;28;20021;-78
2021/01/18 00:58:23;;;;;;;12.10;7.65;;;;;;;0.11;100.00;96597.31;1028236;28;20073;-78
2021/01/18 00:58:54;;;;;;;11.43;7.30;;;;;;;0.07;100.00;96593.22;1040197;28;20025;-78
2021/01/18 00:59:25;;;;;;;9.10;7.03;;;;;;;0.12;100.00;96590.31;1028038;28;20027;-78
2021/01/18 00:59:55;;;;;;;11.65;8.02;;;;;;;0.11;100.00;96592.09;1036326;28;20437;-78
2021/01/18 01:00:27;;;;;;;12.43;7.32;;;;;;;0.13;100.00;96592.81;1028248;28;20121;-77
2021/01/18 01:00:58;;;;;;;11.38;7.60;;;;;;;0.09;100.00;96593.13;1024056;29;20023;-78
2021/01/18 01:01:29;;;;;;;12.30;7.43;;;;;;;-0.02;100.00;96567.66;1036174;28;20163;-78
2021/01/18 01:02:00;;;;;;;13.55;8.05;;;;;;;0.11;100.00;96593.88;1032133;28;20030;-78
2021/01/18 01:02:31;;;;;;;12.52;7.57;;;;;;;0.12;100.00;96595.53;1032025;28;20018;-78
2021/01/18 01:03:02;;;;;;;11.65;8.50;;;;;;;0.11;100.00;96599.91;1028163;28;20023;-78
2021/01/18 01:03:33;;;;;;;10.70;7.43;;;;;;;0.14;100.00;96599.72;1035905;28;20407;-77
2021/01/18 01:04:04;;;;;;;12.80;7.97;;;;;;;0.12;100.00;96593.78;1028005;28;20027;-77
2021/01/18 01:04:35;;;;;;;13.88;7.55;;;;;;;0.02;100.00;96582.22;1028114;28;20019;-77
2021/01/18 01:05:07;;;;;;;12.90;8.15;;;;;;;0.07;100.00;96590.59;1027994;28;20033;-78
2021/01/18 01:05:38;;;;;;;13.55;8.35;;;;;;;0.12;100.00;96595.53;1024080;28;20023;-78
2021/01/18 01:06:09;;;;;;;12.40;7.82;;;;;;;0.16;100.00;96592.63;1032134;28;20372;-78
2021/01/18 01:06:40;;;;;;;11.65;7.50;;;;;;;0.14;100.00;96591.03;1016275;29;20110;-78
2021/01/18 01:07:11;;;;;;;13.68;8.27;;;;;;;0.12;100.00;96591.16;1032051;28;20030;-78
2021/01/18 01:07:44;;;;;;;11.00;7.65;;;;;;;0.11;100.00;96593.88;1032051;28;20398;-78
2021/01/18 01:08:15;;;;;;;10.65;7.43;;;;;;;0.14;100.00;96601.47;1032126;28;20014;-78
2021/01/18 01:08:46;;;;;;;13.75;8.23;;;;;;;0.14;100.00;96594.50;1028049;28;20078;-78
2021/01/18 01:09:17;;;;;;;11.10;7.93;;;;;;;0.17;100.00;96590.84;1027983;28;20023;-78
2021/01/18 01:09:47;;;;;;;12.07;7.43;;;;;;;0.13;100.00;96592.81;1027986;28;20023;-78
2021/01/18 01:10:20;;;;;;;10.90;7.30;;;;;;;0.15;100.00;96596.16;1032047;28;20060;-78
2021/01/18 01:10:52;;;;;;;10.85;7.82;;;;;;;-0.01;100.00;96564.13;1032051;28;20022;-78
2021/01/18 01:11:22;;;;;;;10.82;7.70;;;;;;;0.16;100.00;96594.41;1032038;28;20014;-78
2021/01/18 01:11:53;;;;;;;12.23;8.15;;;;;;;0.10;100.00;96586.94;1027986;28;20133;-78
2021/01/18 01:12:24;;;;;;;10.57;7.53;;;;;;;0.06;100.00;96586.31;1027998;28;20046;-78
2021/01/18 01:12:55;;;;;;;14.45;7.95;;;;;;;0.00;100.00;96571.03;1024009;29;20019;-78
2021/01/18 01:13:26;;;;;;;12.50;7.32;;;;;;;0.13;100.00;96598.03;1031993;28;20022;-78
2021/01/18 01:13:57;;;;;;;12.25;8.35;;;;;;;0.05;100.00;96576.78;1027970;28;20031;-78
2021/01/18 01:14:28;;;;;;;12.60;7.88;;;;;;;0.10;100.00;96590.41;1036178;28;20013;-78
2021/01/18 01:14:59;;;;;;;14.20;8.00;;;;;;;-0.04;100.00;96569.53;1028020;28;20027;-78
2021/01/18 01:15:30;;;;;;;12.35;8.10;;;;;;;0.12;100.00;96596.38;1036076;28;20021;-78
2021/01/18 01:16:01;;;;;;;11.57;7.47;;;;;;;0.08;100.00;96579.22;1023955;29;20506;-78
2021/01/18 01:16:32;;;;;;;12.68;7.88;;;;;;;0.16;100.00;96592.63;1032181;28;20109;-78
2021/01/18 01:17:03;;;;;;;11.88;7.05;;;;;;;0.02;100.00;96569.16;1028078;28;20109;-78
2021/01/18 01:17:41;;;;;;;12.68;7.65;;;;;;;-0.08;100.00;96557.63;1031889;28;20022;-77
2021/01/18 01:18:12;;;;;;;11.85;7.95;;;;;;;-0.05;100.00;96568.72;1027864;28;20030;-78
2021/01/18 01:18:43;;;;;;;13.82;8.20;;;;;;;-0.01;100.00;96564.97;1028157;28;20034;-78
2021/01/18 01:19:14;;;;;;;10.40;7.47;;;;;;;0.10;100.00;96582.56;1027987;28;20022;-78
2021/01/18 01:19:46;;;;;;;13.02;7.93;;;;;;;0.11;100.00;96578.19;1032009;28;20046;-78
2021/01/18 01:20:18;;;;;;;12.38;7.60;;;;;;;0.14;100.00;96598.88;1027974;28;20118;-78
2021/01/18 01:20:49;;;;;;;12.43;7.07;;;;;;;0.16;100.00;96591.81;1028050;28;20121;-78
2021/01/18 01:21:20;;;;;;;12.15;7.38;;;;;;;0.13;100.00;96598.03;1019754;29;20024;-78
2021/01/18 01:21:51;;;;;;;12.00;7.82;;;;;;;0.05;100.00;96574.16;1027805;28;20018;-78
2021/01/18 01:22:22;;;;;;;13.73;7.55;;;;;;;0.12;100.00;96585.94;1023968;29;20027;-78
2021/01/18 01:22:53;;;;;;;11.27;7.53;;;;;;;0.01;100.00;96577.91;1032026;28;20023;-78
2021/01/18 01:23:24;;;;;;;13.23;7.60;;;;;;;0.11;100.00;96593.88;1027966;28;20414;-78
2021/01/18 01:23:55;;;;;;;11.25;8.00;;;;;;;0.03;100.00;96581.28;1036085;28;20024;-78
2021/01/18 01:24:26;;;;;;;11.52;7.82;;;;;;;-0.04;100.00;96569.53;1028011;28;20027;-78
2021/01/18 01:24:57;;;;;;;11.73;7.72;;;;;;;0.12;100.00;96590.31;1028070;28;20068;-78
2021/01/18 01:25:28;;;;;;;11.38;7.43;;;;;;;0.10;100.00;96582.56;1040169;28;20022;-78
2021/01/18 01:25:59;;;;;;;10.93;7.55;;;;;;;0.08;100.00;96589.66;1020018;29;20034;-78
2021/01/18 01:26:30;;;;;;;11.45;7.18;;;;;;;0.12;100.00;96593.78;1031884;28;20061;-78
2021/01/18 01:27:01;;;;;;;11.05;7.32;;;;;;;0.15;100.00;96588.34;1031991;28;20045;-78
2021/01/18 01:27:35;;;;;;;10.73;7.25;;;;;;;0.07;100.00;96564.50;1040293;28;20033;-79
2021/01/18 01:28:06;;;;;;;11.40;7.35;;;;;;;0.05;100.00;96566.34;1031896;28;20054;-79
2021/01/18 01:28:36;;;;;;;13.15;7.07;;;;;;;0.07;100.00;96576.69;1036004;28;20025;-79
2021/01/18 01:29:07;;;;;;;9.98;6.22;;;;;;;0.12;100.00;96585.06;1028057;28;20491;-78
2021/01/18 01:29:38;;;;;;;10.20;7.13;;;;;;;0.10;100.00;96593.00;1036081;28;20053;-79
2021/01/18 01:30:11;;;;;;;11.00;7.18;;;;;;;0.15;100.00;96590.94;1027982;28;20497;-79
2021/01/18 01:30:41;;;;;;;10.88;6.82;;;;;;;0.12;100.00;96591.16;1036077;28;20022;-77
2021/01/18 01:31:12;;;;;;;10.98;7.28;;;;;;;0.12;100.00;96587.69;1028126;28;20026;-78
2021/01/18 01:31:43;;;;;;;12.27;7.32;;;;;;;0.09;100.00;96586.13;1036095;28;20409;-79
2021/01/18 01:32:13;;;;;;;9.82;6.50;;;;;;;-0.04;100.00;96564.31;1023952;28;20024;-78
2021/01/18 01:32:52;;;;;;;10.68;6.63;;;;;;;-0.23;100.00;96534.16;1023968;28;20038;-78
2021/01/18 01:33:23;;;;;;;11.98;7.45;;;;;;;0.15;100.00;96587.50;1036121;28;20468;-78
2021/01/18 01:33:54;;;;;;;10.82;6.78;;;;;;;0.15;100.00;96595.34;1024004;29;20050;-79
2021/01/18 01:34:25;;;;;;;11.05;7.15;;;;;;;0.11;100.00;96589.47;1027885;28;20399;-78
2021/01/18 01:34:56;;;;;;;10.82;7.00;;;;;;;0.07;100.00;96592.34;1027942;28;20026;-79
2021/01/18 01:35:27;;;;;;;9.98;6.28;;;;;;;0.06;100.00;96590.69;1032058;28;20060;-79
2021/01/18 01:36:01;;;;;;;9.88;6.57;;;;;;;0.08;100.00;96588.81;1028053;28;20093;-79
2021/01/18 01:36:31;;;;;;;12.07;7.07;;;;;;;0.11;100.00;96589.47;1027904;28;20023;-78
2021/01/18 01:37:02;;;;;;;11.68;6.25;;;;;;;0.11;100.00;96588.66;1032018;28;20117;-78
2021/01/18 01:37:34;;;;;;;10.70;6.70;;;;;;;0.09;100.00;96591.34;1028104;28;20038;-79
2021/01/18 01:38:06;;;;;;;9.77;6.95;;;;;;;0.12;100.00;96591.16;1028022;28;20102;-78
2021/01/18 01:38:36;;;;;;;10.30;6.90;;;;;;;-0.05;100.00;96554.81;1031843;28;20487;-78
2021/01/18 01:39:07;;;;;;;10.75;6.45;;;;;;;-0.02;100.00;96573.75;1036023;28;20053;-78
2021/01/18 01:39:38;;;;;;;10.32;6.10;;;;;;;0.10;100.00;96589.56;1024023;28;20015;-78
2021/01/18 01:40:11;;;;;;;10.60;6.90;;;;;;;0.13;100.00;96589.38;1028089;28;20486;-78
2021/01/18 01:40:41;;;;;;;9.82;6.15;;;;;;;0.12;100.00;96588.56;1031835;28;20048;-77
2021/01/18 01:41:12;;;;;;;9.10;6.72;;;;;;;0.17;100.00;96589.09;1031913;28;20065;-78
2021/01/18 01:41:43;;;;;;;10.30;6.60;;;;;;;0.16;100.00;96589.19;1031977;28;20089;-78
2021/01/18 01:42:22;;;;;;;11.63;6.35;;;;;;;0.06;100.00;96581.09;1031910;28;20018;-78
2021/01/18 01:42:53;;;;;;;10.05;6.20;;;;;;;0.15;100.00;96583.13;1035869;28;20530;-78
2021/01/18 01:43:24;;;;;;;9.77;6.53;;;;;;;0.12;100.00;96592.91;1036025;28;20029;-78
2021/01/18 01:43:54;;;;;;;9.85;6.22;;;;;;;0.16;100.00;96587.41;1036039;28;20018;-79
2021/01/18 01:44:25;;;;;;;9.57;5.97;;;;;;;0.17;100.00;96583.88;1027989;28;20025;-78
2021/01/18 01:44:56;;;;;;;9.13;5.30;;;;;;;0.18;100.00;96582.09;1027886;28;20025;-78
2021/01/18 01:45:27;;;;;;;9.88;5.85;;;;;;;0.21;100.00;96588.88;1032004;28;20053;-78
2021/01/18 01:45:58;;;;;;;9.10;5.80;;;;;;;0.14;100.00;96568.41;1027994;28;20026;-78
2021/01/18 01:46:29;;;;;;;9.35;6.03;;;;;;;0.06;100.00;96565.41;1036037;28;20115;-78
2021/01/18 01:47:01;;;;;;;8.82;6.13;;;;;;;0.06;100.00;96559.38;1031876;28;20407;-77
2021/01/18 01:47:34;;;;;;;8.35;5.53;;;;;;;0.18;100.00;96575.09;1027916;28;20022;-78
2021/01/18 01:48:05;;;;;;;7.65;5.05;;;;;;;0.20;100.00;96589.84;1027923;28;20518;-78
2021/01/18 01:48:36;;;;;;;9.98;5.35;;;;;;;0.15;100.00;96564.84;1027847;28;20049;-79
2021/01/18 01:49:07;;;;;;;9.23;5.60;;;;;;;0.22;100.00;96580.13;1027873;28;20037;-78
2021/01/18 01:49:38;;;;;;;8.48;5.43;;;;;;;0.17;100.00;96578.66;1028000;28;20038;-78
2021/01/18 01:50:12;;;;;;;8.02;5.30;;;;;;;0.04;100.00;96551.63;1028015;28;20113;-78
2021/01/18 01:50:42;;;;;;;9.18;5.63;;;;;;;0.23;100.00;96576.56;1027912;28;20078;-79
2021/01/18 01:51:13;;;;;;;8.88;5.53;;;;;;;0.11;100.00;96576.41;1040020;28;20025;-79
2021/01/18 01:51:44;;;;;;;9.27;5.55;;;;;;;0.21;100.00;96575.84;1027899;28;20019;-78
2021/01/18 01:52:15;;;;;;;7.78;5.18;;;;;;;0.22;100.00;96585.34;1031849;28;20014;-78
2021/01/18 01:52:48;;;;;;;9.40;5.68;;;;;;;0.17;100.00;96576.03;1031960;28;20022;-78
2021/01/18 01:53:28;;;;;;;9.63;5.38;;;;;;;0.10;100.00;96560.84;1023779;28;20130;-77
2021/01/18 01:53:59;;;;;;;7.85;5.05;;;;;;;0.16;100.00;96581.38;1032004;28;20023;-78
2021/01/18 01:54:31;;;;;;;11.90;5.28;;;;;;;0.13;100.00;96571.94;1040244;28;20040;-79
2021/01/18 01:55:05;;;;;;;7.07;4.65;;;;;;;0.18;100.00;96585.53;1031946;28;20061;-79
2021/01/18 01:55:36;;;;;;;9.82;4.95;;;;;;;0.16;100.00;96576.97;1035838;28;20034;-78
2021/01/18 01:56:06;;;;;;;8.57;4.93;;;;;;;0.14;100.00;96583.22;1027915;28;20449;-78
2021/01/18 01:56:37;;;;;;;8.70;5.25;;;;;;;0.15;100.00;96583.13;1031989;28;20022;-79
2021/01/18 01:57:09;;;;;;;7.57;4.63;;;;;;;0.16;100.00;96584.81;1036013;28;20113;-79
2021/01/18 01:57:40;;;;;;;7.78;4.43;;;;;;;0.04;100.00;96561.25;1031739;28;20526;-79
2021/01/18 01:58:11;;;;;;;7.03;4.75;;;;;;;0.07;100.00;96574.09;1024008;29;20023;-79
2021/01/18 01:58:41;;;;;;;7.60;5.15;;;;;;;-0.02;100.00;96565.06;1027942;28;20031;-78
2021/01/18 01:59:12;;;;;;;7.70;4.38;;;;;;;0.16;100.00;96583.97;1027935;28;20074;-78
2021/01/18 01:59:44;;;;;;;8.93;5.53;;;;;;;0.09;100.00;96585.28;1031727;28;20022;-77
2021/01/18 02:00:15;;;;;;;7.25;4.80;;;;;;;-0.07;100.00;96559.28;1036099;28;20050;-79
2021/01/18 02:00:46;;;;;;;7.43;4.80;;;;;;;0.08;100.00;96579.22;1040091;28;20022;-79
2021/01/18 02:01:19;;;;;;;9.95;4.80;;;;;;;0.07;100.00;96588.00;1023868;28;20019;-78
2021/01/18 02:01:49;;;;;;;9.38;5.55;;;;;;;0.01;100.00;96572.69;1031875;28;20022;-78
2021/01/18 02:02:20;;;;;;;8.98;5.30;;;;;;;0.08;100.00;96587.03;1035984;28;20506;-77
2021/01/18 02:02:51;;;;;;;7.65;5.13;;;;;;;0.08;100.00;96592.25;1031910;28;20384;-78
2021/01/18 02:03:33;;;;;;;7.78;4.82;;;;;;;0.01;100.00;96584.94;1031906;28;20033;-78
2021/01/18 02:04:04;;;;;;;10.25;5.65;;;;;;;0.06;100.00;96583.69;1023832;29;20023;-78
2021/01/18 02:04:35;;;;;;;9.00;4.85;;;;;;;-0.03;100.00;96577.28;1023980;29;20059;-78
2021/01/18 02:05:12;;;;;;;7.63;5.15;;;;;;;0.06;100.00;96588.09;1023977;29;20114;-78
2021/01/18 02:05:43;;;;;;;10.32;5.55;;;;;;;0.06;100.00;96596.75;1027800;28;20027;-78
2021/01/18 02:06:13;;;;;;;10.45;5.38;;;;;;;0.07;100.00;96588.00;1031847;28;20022;-78
2021/01/18 02:06:44;;;;;;;8.85;5.47;;;;;;;0.02;100.00;96583.97;1031898;28;20029;-78
2021/01/18 02:07:24;;;;;;;9.07;5.30;;;;;;;0.03;100.00;96591.72;1035961;28;20022;-78
2021/01/18 02:07:58;;;;;;;9.80;5.60;;;;;;;-0.03;100.00;96582.50;1031805;28;20033;-78
2021/01/18 02:08:29;;;;;;;11.35;5.72;;;;;;;0.11;100.00;96599.91;1035920;28;20084;-78
2021/01/18 02:09:00;;;;;;;6.93;4.55;;;;;;;0.09;100.00;96599.19;1028021;28;20086;-78
2021/01/18 02:09:31;;;;;;;8.48;5.03;;;;;;;0.04;100.00;96588.19;1027900;28;20098;-78
2021/01/18 02:10:03;;;;;;;8.48;5.00;;;;;;;0.07;100.00;96588.00;1023831;29;20019;-77
2021/01/18 02:10:35;;;;;;;8.02;5.10;;;;;;;0.01;100.00;96593.59;1032083;28;20522;-79
2021/01/18 02:11:06;;;;;;;8.70;5.03;;;;;;;0.07;100.00;96598.44;1023934;29;20082;-79
2021/01/18 02:11:36;;;;;;;9.80;5.85;;;;;;;0.08;100.00;96594.06;1031913;28;20019;-79
2021/01/18 02:12:07;;;;;;;10.50;5.70;;;;;;;0.07;100.00;96603.66;1027742;28;20015;-77
2021/01/18 02:12:38;;;;;;;9.52;6.05;;;;;;;0.02;100.00;96587.44;1035837;28;20022;-78
2021/01/18 02:13:17;;;;;;;9.85;5.35;;;;;;;0.02;100.00;96597.03;1031974;28;20042;-78
2021/01/18 02:13:53;;;;;;;8.05;4.53;;;;;;;0.06;100.00;96599.38;1027837;28;20019;-78
2021/01/18 02:14:29;;;;;;;9.40;5.65;;;;;;;0.10;100.00;96607.84;1023767;28;20031;-78
2021/01/18 02:15:11;;;;;;;8.35;5.10;;;;;;;0.11;100.00;96609.53;1023896;29;20480;-78
2021/01/18 02:15:58;;;;;;;10.50;5.80;;;;;;;0.08;100.00;96602.72;1024048;29;20027;-78
2021/01/18 02:16:48;;;;;;;8.77;5.10;;;;;;;0.11;100.00;96606.91;1035882;28;20095;-77
2021/01/18 02:17:25;;;;;;;8.68;5.13;;;;;;;0.11;100.00;96605.13;1031826;28;20042;-78
2021/01/18 02:18:07;;;;;;;9.52;5.63;;;;;;;0.02;100.00;96594.41;1040032;28;20492;-78
2021/01/18 02:18:45;;;;;;;10.05;5.38;;;;;;;-0.13;100.00;96570.13;1027849;28;20031;-78
2021/01/18 02:19:35;;;;;;;13.10;6.05;;;;;;;0.04;100.00;96593.41;1036016;28;20018;-78
2021/01/18 02:20:09;;;;;;;13.80;5.95;;;;;;;0.07;100.00;96610.63;1023834;28;20472;-78
2021/01/18 02:21:01;;;;;;;9.95;5.60;;;;;;;0.09;100.00;96609.63;1035825;28;20014;-78
2021/01/18 02:21:42;;;;;;;9.98;5.80;;;;;;;0.07;100.00;96614.09;1036027;28;20513;-78
2021/01/18 02:22:34;;;;;;;10.48;5.40;;;;;;;0.11;100.00;96618.19;1019849;29;20023;-78
2021/01/18 02:23:24;;;;;;;9.52;5.55;;;;;;;0.03;100.00;96603.94;1027955;28;20015;-78
2021/01/18 02:24:06;;;;;;;12.13;5.72;;;;;;;0.10;100.00;96623.50;1027910;28;20043;-78
2021/01/18 02:24:46;;;;;;;12.00;5.85;;;;;;;0.09;100.00;96632.28;1027701;28;20086;-78
2021/01/18 02:25:36;;;;;;;7.88;4.93;;;;;;;-0.03;100.00;96608.59;1027908;28;20479;-79
2021/01/18 02:26:16;;;;;;;9.48;5.32;;;;;;;-0.02;100.00;96604.22;1027771;28;20499;-78
2021/01/18 02:27:07;;;;;;;13.50;5.40;;;;;;;0.09;100.00;96627.91;1027683;28;20021;-78
2021/01/18 02:27:48;;;;;;;10.00;5.93;;;;;;;-0.35;100.00;96552.31;1031810;28;20475;-79
2021/01/18 02:28:26;;;;;;;9.90;5.88;;;;;;;0.05;100.00;96612.50;1031857;28;20011;-78
2021/01/18 02:29:12;;;;;;;9.93;5.35;;;;;;;0.13;100.00;96631.16;1031858;28;20483;-78
2021/01/18 02:29:54;;;;;;;9.13;5.20;;;;;;;0.04;100.00;96611.69;1027814;28;20407;-79
2021/01/18 02:30:32;;;;;;;11.30;5.72;;;;;;;0.15;100.00;96622.28;1031805;28;20014;-79
2021/01/18 02:31:17;;;;;;;10.35;5.65;;;;;;;0.09;100.00;96617.47;1027718;28;20023;-78
2021/01/18 02:32:02;;;;;;;11.68;5.88;;;;;;;0.17;100.00;96627.41;1031867;28;20017;-78